Time;durP1;ratioP1;P1;durP2;ratioP2;P2;SDS_P1;SDS_P2;PMS_P1;PMS_P2;Temp;Humidity;BMP_temperature;BMP_pressure;BME280_temperature;BME280_humidity;BME280_pressure;Samples;Min_cycle;Max_cycle;Signal;HPM_P1;HPM_P2
2023/05/12 00:01:32;;;;;;;2.10;0.80;;;;;;;;;;5069279;28;20073;-75
2023/05/12 00:03:58;;;;;;;1.17;0.77;;;;;;;;;;5064381;28;20128;-75
2023/05/12 00:06:25;;;;;;;6.07;0.82;;;;;;;;;;5037911;28;20495;-76
2023/05/12 00:08:51;;;;;;;0.73;0.73;;;;;;;;;;5069657;28;20032;-76
2023/05/12 00:11:17;;;;;;;0.60;0.60;;;;;;;;;;5035953;28;20099;-76
2023/05/12 00:13:43;;;;;;;0.77;0.77;;;;;;;;;;5058148;28;20036;-75
2023/05/12 00:16:09;;;;;;;1.33;0.90;;;;;;;;;;5053919;28;20021;-76
2023/05/12 00:18:35;;;;;;;1.15;0.60;;;;;;;;;;5049810;28;20404;-76
2023/05/12 00:21:01;;;;;;;0.70;0.70;;;;;;;;;;5049283;28;20025;-75
2023/05/12 00:23:27;;;;;;;1.52;0.90;;;;;;;;;;5049512;28;20123;-76
2023/05/12 00:25:53;;;;;;;1.10;0.93;;;;;;;;;;5049085;28;20029;-75
2023/05/12 00:28:19;;;;;;;0.57;0.57;;;11.00;99.90;;;;;;5058865;28;20477;-75
2023/05/12 00:30:45;;;;;;;0.75;0.60;;;;;;;;;;5054611;28;20537;-75
2023/05/12 00:33:11;;;;;;;0.70;0.70;;;;;;;;;;5059351;28;20490;-76
2023/05/12 00:35:37;;;;;;;1.83;0.85;;;;;;;;;;5050100;28;20037;-76
2023/05/12 00:38:03;;;;;;;3.47;1.77;;;;;;;;;;5050265;28;20764;-76
2023/05/12 00:40:29;;;;;;;0.70;0.68;;;;;;;;;;5058334;28;20020;-76
2023/05/12 00:42:56;;;;;;;1.30;0.80;;;;;;;;;;5068453;28;20038;-76
2023/05/12 00:45:22;;;;;;;0.40;0.40;;;10.50;99.90;;;;;;5062864;28;20043;-76
2023/05/12 00:47:50;;;;;;;2.63;0.50;;;10.80;99.90;;;;;;5049184;28;20104;-76
2023/05/12 00:50:17;;;;;;;1.25;0.77;;;9.00;99.90;;;;;;5068645;28;20113;-77
2023/05/12 00:52:43;;;;;;;4.55;0.95;;;;;;;;;;5067999;28;20024;-76
2023/05/12 00:55:08;;;;;;;0.60;0.50;;;10.60;99.90;;;;;;5062075;28;20032;-75
2023/05/12 00:57:34;;;;;;;1.88;0.88;;;;;;;;;;5067715;28;20023;-75
2023/05/12 01:00:00;;;;;;;1.40;0.68;;;;;;;;;;5068165;28;20482;-77
2023/05/12 01:02:26;;;;;;;0.55;0.55;;;;;;;;;;5067045;28;20070;-76
2023/05/12 01:04:52;;;;;;;6.65;0.93;;;;;;;;;;5065926;28;20450;-76
2023/05/12 01:07:21;;;;;;;5.60;0.60;;;10.70;99.90;;;;;;5069073;28;20100;-76
2023/05/12 01:09:47;;;;;;;0.60;0.50;;;;;;;;;;5067527;28;20035;-76
2023/05/12 01:12:14;;;;;;;1.30;0.60;;;;;;;;;;5068676;28;20024;-76
2023/05/12 01:14:40;;;;;;;0.50;0.50;;;;;;;;;;5067404;28;20028;-76
2023/05/12 01:17:12;;;;;;;1.38;0.85;;;10.80;99.90;;;;;;5050384;28;20059;-76
2023/05/12 01:19:42;;;;;;;1.55;1.42;;;10.70;99.90;;;;;;5048663;28;20120;-76
2023/05/12 01:22:09;;;;;;;0.93;0.73;;;10.70;99.90;;;;;;5047523;28;20057;-76
2023/05/12 01:24:56;;;;;;;0.60;0.60;;;10.80;99.90;;;;;;5048774;28;20044;-76
2023/05/12 01:27:25;;;;;;;1.45;0.80;;;10.80;99.90;;;;;;5050076;28;20025;-76
2023/05/12 01:29:51;;;;;;;2.08;1.30;;;10.60;99.90;;;;;;5068068;28;20618;-76
2023/05/12 01:32:17;;;;;;;1.05;0.95;;;10.70;99.90;;;;;;5058332;28;20033;-76
2023/05/12 01:34:45;;;;;;;0.75;0.75;;;10.70;99.90;;;;;;5048334;28;20025;-75
2023/05/12 01:37:11;;;;;;;;;;;10.80;99.90;;;;;;5059584;28;20028;-76
2023/05/12 01:39:37;;;;;;;0.80;0.77;;;;;;;;;;5051064;28;19905;-76
2023/05/12 01:42:04;;;;;;;1.20;0.90;;;10.60;99.90;;;;;;5060735;28;20510;-76
2023/05/12 01:44:30;;;;;;;0.70;0.70;;;;;;;;;;5058661;28;20028;-76
2023/05/12 01:46:56;;;;;;;0.70;0.50;;;;;;;;;;5061729;28;20124;-76
2023/05/12 01:49:22;;;;;;;0.88;0.60;;;;;;;;;;5068435;28;20536;-75
2023/05/12 01:51:48;;;;;;;0.63;0.63;;;10.70;99.90;;;;;;5064687;28;20048;-76
2023/05/12 01:54:14;;;;;;;1.45;0.90;;;;;;;;;;5068273;28;20044;-76
2023/05/12 01:56:40;;;;;;;0.57;0.57;;;;;;;;;;5072114;28;20398;-76
2023/05/12 01:59:06;;;;;;;0.68;0.68;;;;;;;;;;5071158;28;20581;-76
2023/05/12 02:01:32;;;;;;;0.60;0.60;;;;;;;;;;5072519;28;20021;-76
2023/05/12 02:03:58;;;;;;;1.08;0.70;;;;;;;;;;5056465;28;20052;-76
2023/05/12 02:06:27;;;;;;;1.05;0.75;;;10.70;99.90;;;;;;5061822;28;20067;-76
2023/05/12 02:08:53;;;;;;;0.95;0.80;;;;;;;;;;5071295;28;20025;-76
2023/05/12 02:11:19;;;;;;;4.43;1.20;;;10.40;99.90;;;;;;5071850;28;20027;-76
2023/05/12 02:13:45;;;;;;;0.93;0.80;;;;;;;;;;5070664;28;20035;-76
2023/05/12 02:16:11;;;;;;;0.65;0.65;;;;;;;;;;5054248;28;20028;-75
2023/05/12 02:18:37;;;;;;;1.15;0.90;;;;;;;;;;5067001;28;20028;-76
2023/05/12 02:21:03;;;;;;;5.55;0.73;;;;;;;;;;5061778;28;20116;-76
2023/05/12 02:23:29;;;;;;;0.50;0.50;;;11.50;99.90;;;;;;5070735;28;20371;-75
2023/05/12 02:25:55;;;;;;;0.55;0.55;;;;;;;;;;5070791;28;20038;-76
2023/05/12 02:28:22;;;;;;;0.95;0.95;;;;;;;;;;5070008;28;20020;-76
2023/05/12 02:30:49;;;;;;;1.02;0.90;;;10.80;99.90;;;;;;5070910;28;20417;-76
2023/05/12 02:33:15;;;;;;;;;;;10.80;99.90;;;;;;5070781;28;20365;-76
2023/05/12 02:35:41;;;;;;;1.38;1.23;;;;;;;;;;5071396;28;20454;-76
2023/05/12 02:38:07;;;;;;;1.15;0.88;;;;;;;;;;5070522;28;20078;-76
2023/05/12 02:40:33;;;;;;;0.88;0.75;;;10.90;99.90;;;;;;5071512;28;20490;-75
2023/05/12 02:42:59;;;;;;;1.40;1.10;;;;;;;;;;5070587;28;20024;-76
2023/05/12 02:45:25;;;;;;;1.13;0.90;;;;;;;;;;5071143;28;20028;-75
2023/05/12 02:47:51;;;;;;;1.33;1.05;;;;;;;;;;5069876;28;20394;-76
2023/05/12 02:50:17;;;;;;;6.07;1.45;;;;;;;;;;5063382;28;20637;-75
2023/05/12 02:52:43;;;;;;;1.73;0.95;;;;;;;;;;5051666;28;20036;-76
2023/05/12 02:55:09;;;;;;;1.10;0.88;;;;;;;;;;5050349;28;20033;-76
2023/05/12 02:57:35;;;;;;;1.63;1.15;;;10.70;99.90;;;;;;5051727;28;20507;-75
2023/05/12 03:00:04;;;;;;;1.17;0.88;;;10.90;99.90;;;;;;5051334;28;20033;-76
2023/05/12 03:02:30;;;;;;;1.50;1.20;;;;;;;;;;5052523;28;20071;-76
2023/05/12 03:04:56;;;;;;;1.20;0.73;;;;;;;;;;5051503;28;20040;-76
2023/05/12 03:07:22;;;;;;;1.80;1.08;;;;;;;;;;5052279;28;20025;-76
2023/05/12 03:09:48;;;;;;;1.67;0.98;;;;;;;;;;5051299;28;20040;-76
2023/05/12 03:12:14;;;;;;;1.90;1.00;;;;;;;;;;5052056;28;20021;-76
2023/05/12 03:14:40;;;;;;;0.80;0.80;;;;;;;;;;5032680;28;20116;-76
2023/05/12 03:17:06;;;;;;;1.85;0.77;;;;;;;;;;5052444;28;20108;-76
2023/05/12 03:19:33;;;;;;;0.60;0.60;;;;;;;;;;5051554;28;20367;-76
2023/05/12 03:21:59;;;;;;;1.25;0.90;;;;;;;;;;5052664;28;20063;-76
2023/05/12 03:24:25;;;;;;;1.65;0.80;;;;;;;;;;5051775;28;20410;-76
2023/05/12 03:26:51;;;;;;;3.33;1.13;;;;;;;;;;5052691;28;20417;-76
2023/05/12 03:29:17;;;;;;;0.93;0.82;;;;;;;;;;5051427;28;20397;-76
2023/05/12 03:31:43;;;;;;;3.50;0.70;;;;;;;;;;5051919;28;20124;-76
2023/05/12 03:34:09;;;;;;;2.65;0.90;;;;;;;;;;5050204;28;20028;-76
2023/05/12 03:36:36;;;;;;;4.57;0.82;;;;;;;;;;5051208;28;20457;-76
2023/05/12 03:39:02;;;;;;;4.30;1.13;;;10.90;99.90;;;;;;5050702;28;20701;-76
2023/05/12 03:41:27;;;;;;;0.85;0.65;;;10.80;99.90;;;;;;5051889;28;20119;-76
2023/05/12 03:43:53;;;;;;;1.05;0.85;;;10.70;99.90;;;;;;5051012;28;20059;-76
2023/05/12 03:46:19;;;;;;;3.47;0.90;;;;;;;;;;5052017;28;20056;-76
2023/05/12 03:48:45;;;;;;;0.98;0.88;;;;;;;;;;5061628;28;20031;-76
2023/05/12 03:51:12;;;;;;;1.30;0.90;;;;;;;;;;5059219;28;20020;-75
2023/05/12 03:53:44;;;;;;;5.32;1.05;;;;;;;;;;5069269;28;20031;-76
2023/05/12 03:56:10;;;;;;;1.20;1.10;;;;;;;;;;5069853;28;20024;-75
2023/05/12 03:58:35;;;;;;;8.05;1.10;;;10.70;99.90;;;;;;5069905;28;20085;-76
2023/05/12 04:01:01;;;;;;;0.80;0.80;;;;;;;;;;5069677;28;20021;-76
2023/05/12 04:03:28;;;;;;;1.08;0.80;;;;;;;;;;5058770;28;20186;-75
2023/05/12 04:06:01;;;;;;;4.13;1.13;;;10.90;99.90;;;;;;5067548;28;20028;-76
2023/05/12 04:08:27;;;;;;;2.15;1.10;;;11.10;99.90;;;;;;5068694;28;20028;-76
2023/05/12 04:10:57;;;;;;;1.20;1.10;;;10.30;99.90;;;;;;5068666;28;20166;-76
2023/05/12 04:13:23;;;;;;;0.93;0.80;;;;;;;;;;5049647;28;20031;-76
2023/05/12 04:15:49;;;;;;;1.35;1.05;;;;;;;;;;5063439;28;20028;-76
2023/05/12 04:18:16;;;;;;;2.25;1.38;;;10.90;99.90;;;;;;5068484;28;20020;-76
2023/05/12 04:20:43;;;;;;;3.65;0.95;;;;;;;;;;5069489;28;20103;-76
2023/05/12 04:23:09;;;;;;;1.98;1.45;;;;;;;;;;5068488;28;20043;-76
2023/05/12 04:25:39;;;;;;;2.20;1.13;;;10.80;99.90;;;;;;5068843;28;20032;-76
2023/05/12 04:28:05;;;;;;;1.58;1.30;;;;;;;;;;5067772;28;20031;-76
2023/05/12 04:30:31;;;;;;;4.70;1.40;;;;;;;;;;5067711;28;20049;-76
2023/05/12 04:32:57;;;;;;;4.53;1.20;;;;;;;;;;5068035;28;20017;-76
2023/05/12 04:35:23;;;;;;;1.38;1.20;;;;;;;;;;5068485;28;20491;-76
2023/05/12 04:37:49;;;;;;;1.20;1.10;;;;;;;;;;5068099;28;20056;-76
2023/05/12 04:40:15;;;;;;;1.40;1.30;;;;;;;;;;5068595;28;20082;-76
2023/05/12 04:42:41;;;;;;;1.02;0.90;;;;;;;;;;5068193;28;20036;-76
2023/05/12 04:45:08;;;;;;;4.20;1.50;;;11.20;99.90;;;;;;5065500;28;20106;-76
2023/05/12 04:47:34;;;;;;;1.73;1.15;;;;;;;;;;5067252;28;20035;-76
2023/05/12 04:50:00;;;;;;;2.25;1.10;;;11.00;99.90;;;;;;5068620;28;20450;-77
2023/05/12 04:52:26;;;;;;;1.60;1.20;;;;;;;;;;5067572;28;20112;-77
2023/05/12 04:54:52;;;;;;;1.27;0.90;;;;;;;;;;5068733;28;20017;-76
2023/05/12 04:57:18;;;;;;;1.10;1.00;;;11.10;99.90;;;;;;5067355;28;20028;-76
2023/05/12 04:59:44;;;;;;;0.77;0.77;;;;;;;;;;5068356;28;20024;-76
2023/05/12 05:02:10;;;;;;;0.93;0.88;;;11.40;99.90;;;;;;5068032;28;20096;-76
2023/05/12 05:04:36;;;;;;;1.33;1.13;;;;;;;;;;5053376;28;20443;-75
2023/05/12 05:07:03;;;;;;;0.95;0.80;;;;;;;;;;5049545;28;20017;-76
2023/05/12 05:09:29;;;;;;;2.13;1.23;;;;;;;;;;5050805;28;20071;-76
2023/05/12 05:11:55;;;;;;;2.47;1.13;;;;;;;;;;5049989;28;20145;-76
2023/05/12 05:14:21;;;;;;;1.45;1.08;;;11.40;99.90;;;;;;5026625;28;20025;-77
2023/05/12 05:16:47;;;;;;;1.58;1.30;;;;;;;;;;5048843;28;20009;-77
2023/05/12 05:19:14;;;;;;;3.72;1.45;;;;;;;;;;5057020;28;20513;-76
2023/05/12 05:21:40;;;;;;;1.90;1.13;;;;;;;;;;5051785;28;20553;-77
2023/05/12 05:24:06;;;;;;;1.42;1.10;;;11.60;99.90;;;;;;5047055;28;20037;-76
2023/05/12 05:26:32;;;;;;;2.05;1.23;;;;;;;;;;5049739;28;20405;-76
2023/05/12 05:28:58;;;;;;;1.65;1.55;;;;;;;;;;5049941;28;20036;-77
2023/05/12 05:31:27;;;;;;;5.35;1.88;;;;;;;;;;5047190;28;20055;-75
2023/05/12 05:33:53;;;;;;;1.45;1.20;;;;;;;;;;5045047;28;20024;-76
2023/05/12 05:36:19;;;;;;;1.05;1.00;;;;;;;;;;5040877;28;20094;-76
2023/05/12 05:38:45;;;;;;;7.35;1.60;;;;;;;;;;5049774;28;20029;-76
2023/05/12 05:41:12;;;;;;;2.08;1.27;;;;;;;;;;5047311;28;20405;-76
2023/05/12 05:43:38;;;;;;;1.65;1.10;;;;;;;;;;5044335;28;20505;-76
2023/05/12 05:46:04;;;;;;;1.02;0.95;;;;;;;;;;5049374;28;20147;-76
2023/05/12 05:48:30;;;;;;;1.23;1.08;;;;;;;;;;5053996;28;20412;-76
2023/05/12 05:50:56;;;;;;;1.05;0.88;;;;;;;;;;5051514;28;20115;-77
2023/05/12 05:53:22;;;;;;;1.52;0.90;;;;;;;;;;5054409;28;20027;-77
2023/05/12 05:55:48;;;;;;;2.70;0.75;;;;;;;;;;5061248;28;20059;-86
2023/05/12 05:58:15;;;;;;;0.88;0.80;;;;;;;;;;5061596;28;20048;-81
2023/05/12 06:00:42;;;;;;;1.20;1.10;;;15.40;99.90;;;;;;5037888;28;20077;-77
2023/05/12 06:03:08;;;;;;;1.50;0.80;;;;;;;;;;5043556;28;20033;-77
2023/05/12 06:05:34;;;;;;;1.60;0.80;;;;;;;;;;5041984;28;20052;-77
2023/05/12 06:08:00;;;;;;;1.25;0.95;;;;;;;;;;5045343;28;20309;-78
2023/05/12 06:10:26;;;;;;;2.15;1.33;;;;;;;;;;5041889;28;20060;-78
2023/05/12 06:12:51;;;;;;;1.60;1.50;;;12.70;99.90;;;;;;5045539;28;20104;-77
2023/05/12 06:15:18;;;;;;;4.10;0.93;;;;;;;;;;5043238;28;20519;-77
2023/05/12 06:17:44;;;;;;;4.03;1.17;;;;;;;;;;5045091;28;20234;-77
2023/05/12 06:20:12;;;;;;;2.25;1.08;;;;;;;;;;5043128;28;20041;-78
2023/05/12 06:22:38;;;;;;;1.20;1.10;;;;;;;;;;5044954;28;20028;-77
2023/05/12 06:25:04;;;;;;;2.88;2.30;;;12.60;99.90;;;;;;5034660;28;20041;-78
2023/05/12 06:27:30;;;;;;;1.77;1.33;;;12.10;99.90;;;;;;5037832;28;20080;-79
2023/05/12 06:29:56;;;;;;;1.70;1.40;;;;;;;;;;5022156;28;20046;-81
2023/05/12 06:32:22;;;;;;;2.72;1.33;;;;;;;;;;5030028;28;20113;-78
2023/05/12 06:34:48;;;;;;;1.63;1.40;;;;;;;;;;5029912;28;20029;-78
2023/05/12 06:37:14;;;;;;;2.50;1.17;;;;;;;;;;5029743;28;20037;-78
2023/05/12 06:39:40;;;;;;;2.58;1.17;;;;;;;;;;5024906;28;20041;-79
2023/05/12 06:42:06;;;;;;;1.83;1.00;;;;;;;;;;5029655;28;20071;-79
2023/05/12 06:44:32;;;;;;;2.47;1.10;;;;;;;;;;5031576;28;20519;-79
2023/05/12 06:46:58;;;;;;;1.55;1.45;;;;;;;;;;5026814;28;20021;-78
2023/05/12 06:49:24;;;;;;;1.55;1.20;;;;;;;;;;5030455;28;20078;-79
2023/05/12 06:51:50;;;;;;;1.63;1.20;;;;;;;;;;5034904;28;20111;-78
2023/05/12 06:54:16;;;;;;;1.67;1.40;;;;;;;;;;5035710;28;20494;-78
2023/05/12 06:56:42;;;;;;;1.27;1.17;;;;;;;;;;5031016;28;20052;-79
2023/05/12 06:59:08;;;;;;;1.67;1.17;;;;;;;;;;5031492;28;20072;-79
2023/05/12 07:01:34;;;;;;;2.78;1.10;;;;;;;;;;5026756;28;20025;-81
2023/05/12 07:04:00;;;;;;;1.20;1.10;;;;;;;;;;5034875;28;20090;-80
2023/05/12 07:06:29;;;;;;;1.73;1.17;;;13.80;99.90;;;;;;5032040;28;20444;-79
2023/05/12 07:08:55;;;;;;;1.05;0.95;;;;;;;;;;5029765;28;20025;-79
2023/05/12 07:11:22;;;;;;;4.78;1.10;;;;;;;;;;5024177;28;20895;-80
2023/05/12 07:13:51;;;;;;;1.23;1.00;;;13.80;99.90;;;;;;5036325;28;20378;-75
2023/05/12 07:16:18;;;;;;;1.13;1.00;;;13.90;99.90;;;;;;5028837;28;20052;-78
2023/05/12 07:18:45;;;;;;;1.88;1.30;;;13.90;99.90;;;;;;5031076;28;20038;-78
2023/05/12 07:21:11;;;;;;;1.33;1.00;;;;;;;;;;5021888;28;20671;-79
2023/05/12 07:23:37;;;;;;;1.70;1.40;;;;;;;;;;5029255;28;20877;-78
2023/05/12 07:26:05;;;;;;;1.02;1.02;;;14.20;99.90;;;;;;5030672;28;20479;-79
2023/05/12 07:28:36;;;;;;;5.00;1.30;;;14.60;99.90;;;;;;5029744;28;20026;-80
2023/05/12 07:31:06;;;;;;;1.23;1.13;;;14.90;99.10;;;;;;5020003;28;20450;-79
2023/05/12 07:33:32;;;;;;;2.42;1.95;;;;;;;;;;5034461;28;20072;-77
2023/05/12 07:35:58;;;;;;;9.65;1.70;;;;;;;;;;5036697;28;20029;-80
2023/05/12 07:38:24;;;;;;;1.67;1.45;;;;;;;;;;5019357;28;20025;-80
2023/05/12 07:40:50;;;;;;;1.83;1.42;;;;;;;;;;5035897;28;20033;-77
2023/05/12 07:43:17;;;;;;;1.35;1.25;;;;;;;;;;5031149;28;20041;-77
2023/05/12 07:45:43;;;;;;;1.48;1.23;;;;;;;;;;5042052;28;20021;-80
2023/05/12 07:48:10;;;;;;;3.80;1.20;;;;;;;;;;5031483;28;20029;-80
2023/05/12 07:50:36;;;;;;;1.63;1.17;;;;;;;;;;5021273;28;20550;-78
2023/05/12 07:53:03;;;;;;;1.52;1.08;;;;;;;;;;5019841;28;20521;-78
2023/05/12 07:55:29;;;;;;;1.05;0.80;;;;;;;;;;5028576;28;20060;-79
2023/05/12 07:57:55;;;;;;;0.82;0.80;;;;;;;;;;5031510;28;20033;-79
2023/05/12 08:00:21;;;;;;;2.17;1.35;;;;;;;;;;5025737;28;20071;-79
2023/05/12 08:02:47;;;;;;;1.15;1.05;;;;;;;;;;5029387;28;20052;-87
2023/05/12 08:05:13;;;;;;;1.05;0.95;;;;;;;;;;5032359;28;20451;-85
2023/05/12 08:07:42;;;;;;;0.82;0.80;;;;;;;;;;5027460;28;20032;-78
2023/05/12 08:10:10;;;;;;;1.25;1.15;;;17.90;93.00;;;;;;5027950;28;20509;-81
2023/05/12 08:12:36;;;;;;;1.42;1.10;;;;;;;;;;5037672;28;20021;-81
2023/05/12 08:15:02;;;;;;;1.02;0.93;;;;;;;;;;5038686;28;20033;-81
2023/05/12 08:17:28;;;;;;;2.17;1.55;;;;;;;;;;5027480;28;20032;-84
2023/05/12 08:19:54;;;;;;;2.10;1.00;;;;;;;;;;5023099;28;20033;-85
2023/05/12 08:22:20;;;;;;;1.20;1.10;;;;;;;;;;5030187;28;20021;-83
2023/05/12 08:24:46;;;;;;;0.98;0.93;;;;;;;;;;5044146;28;20041;-78
2023/05/12 08:27:12;;;;;;;2.63;1.40;;;;;;;;;;5037490;28;20030;-80
2023/05/12 08:29:38;;;;;;;7.03;3.80;;;;;;;;;;5023750;28;20115;-82
2023/05/12 08:32:04;;;;;;;5.20;2.17;;;;;;;;;;5028404;28;20211;-80
2023/05/12 08:34:31;;;;;;;2.08;1.33;;;;;;;;;;5029530;28;20578;-84
2023/05/12 08:36:57;;;;;;;1.70;1.13;;;;;;;;;;5027999;28;20037;-81
2023/05/12 08:39:23;;;;;;;2.05;1.30;;;;;;;;;;5008541;28;20715;-81
2023/05/12 08:42:09;;;;;;;1.33;1.15;;;16.50;89.40;;;;;;5026895;28;20491;-80
2023/05/12 08:44:39;;;;;;;2.25;0.90;;;16.20;89.50;;;;;;5028053;28;20029;-80
2023/05/12 08:47:05;;;;;;;2.35;1.60;;;16.00;90.40;;;;;;5029557;28;20030;-80
2023/05/12 08:49:34;;;;;;;1.58;1.48;;;16.20;90.60;;;;;;5009740;28;20558;-79
2023/05/12 08:52:03;;;;;;;4.57;1.38;;;16.60;90.10;;;;;;5032841;28;20080;-80
2023/05/12 08:54:29;;;;;;;2.35;1.52;;;;;;;;;;5038766;28;20105;-79
2023/05/12 08:56:56;;;;;;;1.65;1.50;;;17.80;82.80;;;;;;5043929;28;20544;-83
2023/05/12 08:59:23;;;;;;;1.48;1.00;;;17.90;76.70;;;;;;5005830;28;20068;-82
2023/05/12 09:01:49;;;;;;;1.45;1.08;;;17.70;78.20;;;;;;5034017;28;20032;-81
2023/05/12 09:04:16;;;;;;;1.08;0.60;;;;;;;;;;5035757;28;20134;-79
2023/05/12 09:06:45;;;;;;;3.92;1.50;;;17.00;81.10;;;;;;5032497;28;20033;-83
2023/05/12 09:09:14;;;;;;;3.42;2.20;;;16.60;82.30;;;;;;5029488;28;20025;-82
2023/05/12 09:11:41;;;;;;;5.38;1.90;;;16.30;84.00;;;;;;5034370;28;20031;-81
2023/05/12 09:14:24;;;;;;;1.67;1.17;;;16.60;84.40;;;;;;5019512;28;20512;-81
2023/05/12 09:16:53;;;;;;;1.95;1.50;;;17.00;81.90;;;;;;5021079;28;20773;-84
2023/05/12 09:19:20;;;;;;;2.75;1.40;;;17.00;81.40;;;;;;5036847;28;20017;-78
2023/05/12 09:21:47;;;;;;;1.33;1.23;;;16.90;80.70;;;;;;5015648;28;20026;-78
2023/05/12 09:24:13;;;;;;;2.67;1.30;;;;;;;;;;5046083;28;20717;-82
2023/05/12 09:26:50;;;;;;;1.63;1.33;;;16.50;89.90;;;;;;5037890;28;20124;-78
2023/05/12 09:29:16;;;;;;;;;;;16.40;81.80;;;;;;5032801;28;20037;-79
2023/05/12 09:31:52;;;;;;;2.22;1.30;;;16.40;94.20;;;;;;5011647;28;19925;-81
2023/05/12 09:34:25;;;;;;;3.05;1.23;;;16.70;82.60;;;;;;5034801;28;20025;-80
2023/05/12 09:36:56;;;;;;;5.35;1.60;;;16.60;82.40;;;;;;5030433;28;20522;-80
2023/05/12 09:39:22;;;;;;;2.40;1.60;;;;;;;;;;5034997;28;20028;-80
2023/05/12 09:41:48;;;;;;;2.83;1.67;;;;;;;;;;5016820;28;20107;-77
2023/05/12 09:44:17;;;;;;;1.67;1.17;;;16.40;82.40;;;;;;5030637;28;20479;-81
2023/05/12 09:46:44;;;;;;;5.50;2.22;;;16.30;82.50;;;;;;5015837;28;20108;-79
2023/05/12 09:49:10;;;;;;;1.80;1.50;;;;;;;;;;5007382;28;20109;-80
2023/05/12 09:51:37;;;;;;;4.30;2.25;;;;;;;;;;5030906;28;20086;-80
2023/05/12 09:54:03;;;;;;;4.75;1.55;;;;;;;;;;5042636;28;20033;-77
2023/05/12 09:56:34;;;;;;;2.15;1.50;;;16.10;84.20;;;;;;5039139;28;20483;-76
2023/05/12 09:59:03;;;;;;;2.97;1.92;;;16.30;83.40;;;;;;5027408;28;20041;-77
2023/05/12 10:01:29;;;;;;;2.38;1.60;;;;;;;;;;5033791;28;20021;-82
2023/05/12 10:03:56;;;;;;;2.28;1.50;;;17.20;79.70;;;;;;5036080;28;20092;-79
2023/05/12 10:06:36;;;;;;;2.60;1.40;;;17.70;76.40;;;;;;5046526;28;20031;-80
2023/05/12 10:09:10;;;;;;;1.00;1.00;;;18.50;74.40;;;;;;5039601;28;20041;-76
2023/05/12 10:11:36;;;;;;;2.03;1.42;;;19.50;70.30;;;;;;5036424;28;20032;-77
2023/05/12 10:14:03;;;;;;;2.03;1.20;;;19.70;83.10;;;;;;5040942;28;20029;-76
2023/05/12 10:16:29;;;;;;;1.13;0.97;;;;;;;;;;5045116;28;20033;-81
2023/05/12 10:18:55;;;;;;;2.35;1.40;;;;;;;;;;5036629;28;20105;-77
2023/05/12 10:21:24;;;;;;;1.30;1.00;;;18.10;71.50;;;;;;5033527;28;20067;-78
2023/05/12 10:23:52;;;;;;;1.38;1.23;;;17.70;73.60;;;;;;5042813;28;20041;-78
2023/05/12 10:26:19;;;;;;;1.13;0.95;;;17.80;75.10;;;;;;5041147;28;20414;-77
2023/05/12 10:28:45;;;;;;;5.13;1.00;;;;;;;;;;5038124;28;20029;-76
2023/05/12 10:31:12;;;;;;;1.55;0.82;;;18.10;74.20;;;;;;5027478;28;20052;-77
2023/05/12 10:33:38;;;;;;;0.95;0.85;;;;;;;;;;5031546;28;20041;-77
2023/05/12 10:36:04;;;;;;;3.50;1.38;;;18.90;87.60;;;;;;5034537;28;20161;-77
2023/05/12 10:38:36;;;;;;;1.90;1.30;;;19.70;69.80;;;;;;5032820;28;20624;-77
2023/05/12 10:41:05;;;;;;;1.73;1.05;;;20.30;66.60;;;;;;5028390;28;20020;-77
2023/05/12 10:43:43;;;;;;;1.42;1.33;;;20.40;65.80;;;;;;5031292;28;20071;-77
2023/05/12 10:46:16;;;;;;;2.03;1.10;;;20.30;81.20;;;;;;5034238;28;20029;-77
2023/05/12 10:49:08;;;;;;;1.60;1.08;;;19.10;68.40;;;;;;5014324;28;20093;-76
2023/05/12 10:51:43;;;;;;;2.15;1.33;;;18.00;74.40;;;;;;5022836;28;20069;-77
2023/05/12 10:54:10;;;;;;;5.32;1.27;;;17.20;74.30;;;;;;5029329;28;20036;-77
2023/05/12 10:56:39;;;;;;;9.68;1.52;;;;;;;;;;5029646;28;20056;-77
2023/05/12 10:59:10;;;;;;;2.30;1.23;;;16.40;79.40;;;;;;5028317;28;20133;-77
2023/05/12 11:01:36;;;;;;;1.33;1.23;;;;;;;;;;5037050;28;20033;-78
2023/05/12 11:04:13;;;;;;;1.35;1.20;;;18.00;90.20;;;;;;5036977;28;20025;-77
2023/05/12 11:06:39;;;;;;;1.48;0.98;;;;;;;;;;5041915;28;20032;-78
2023/05/12 11:09:06;;;;;;;2.00;1.08;;;;;;;;;;5030808;28;20025;-78
2023/05/12 11:11:32;;;;;;;1.55;1.40;;;;;;;;;;5037651;28;20029;-77
2023/05/12 11:13:58;;;;;;;1.85;0.90;;;24.20;71.50;;;;;;5048373;28;20549;-77
2023/05/12 11:16:24;;;;;;;1.23;1.13;;;;;;;;;;5037457;28;20034;-78
2023/05/12 11:19:02;;;;;;;1.88;0.95;;;27.00;52.60;;;;;;5042411;28;20518;-77
2023/05/12 11:21:30;;;;;;;1.75;0.80;;;27.90;60.50;;;;;;5026040;28;20481;-78
2023/05/12 11:23:57;;;;;;;2.60;1.05;;;;;;;;;;5036767;28;20040;-78
2023/05/12 11:26:22;;;;;;;0.70;0.70;;;;;;;;;;5034590;28;20136;-78
2023/05/12 11:28:48;;;;;;;1.25;0.80;;;;;;;;;;5042079;28;20553;-78
2023/05/12 11:31:21;;;;;;;0.90;0.70;;;25.50;50.40;;;;;;5025552;28;20061;-78
2023/05/12 11:33:47;;;;;;;1.75;0.90;;;23.90;51.70;;;;;;5025611;28;20037;-78
2023/05/12 11:36:14;;;;;;;3.87;0.97;;;;;;;;;;5037508;28;20030;-78
2023/05/12 11:38:48;;;;;;;2.45;0.60;;;21.90;55.40;;;;;;5044762;28;20021;-77
2023/05/12 11:41:14;;;;;;;1.52;1.17;;;;;;;;;;5027620;28;20104;-77
2023/05/12 11:43:40;;;;;;;1.20;0.88;;;;;;;;;;5046950;28;20041;-77
2023/05/12 11:46:06;;;;;;;3.50;1.00;;;;;;;;;;5041204;28;20026;-77
2023/05/12 11:48:35;;;;;;;2.35;1.70;;;20.80;65.90;;;;;;5039245;28;20021;-77
2023/05/12 11:51:02;;;;;;;1.08;0.85;;;;;;;;;;5010746;28;20033;-77
2023/05/12 11:53:28;;;;;;;6.03;1.48;;;;;;;;;;5049041;28;20029;-78
2023/05/12 11:55:55;;;;;;;2.08;1.60;;;21.50;57.30;;;;;;5045224;28;20481;-77
2023/05/12 11:58:25;;;;;;;2.90;1.63;;;22.50;55.50;;;;;;5047854;28;20033;-78
2023/05/12 12:00:51;;;;;;;1.33;1.00;;;;;;;;;;5030255;28;20503;-77
2023/05/12 12:03:17;;;;;;;2.72;1.77;;;;;;;;;;5012185;28;20407;-78
2023/05/12 12:06:00;;;;;;;3.80;1.25;;;22.90;53.30;;;;;;5042113;28;20548;-77
2023/05/12 12:08:26;;;;;;;2.97;1.00;;;;;;;;;;5041312;28;20111;-85
2023/05/12 12:10:52;;;;;;;0.95;0.70;;;;;;;;;;5026868;28;21020;-82
2023/05/12 12:13:21;;;;;;;1.10;0.57;;;21.20;54.30;;;;;;5034722;28;20113;-82
2023/05/12 12:15:48;;;;;;;1.83;1.08;;;;;;;;;;5028041;28;20037;-81
2023/05/12 12:18:15;;;;;;;0.93;0.73;;;;;;;;;;5039698;28;20031;-77
2023/05/12 12:20:41;;;;;;;2.03;0.60;;;;;;;;;;5024541;28;20036;-77
2023/05/12 12:23:07;;;;;;;1.02;0.60;;;;;;;;;;5032919;28;20036;-77
2023/05/12 12:25:33;;;;;;;0.70;0.70;;;;;;;;;;5033398;28;20057;-77
2023/05/12 12:27:59;;;;;;;1.25;0.70;;;;;;;;;;5034181;28;20116;-82
2023/05/12 12:30:25;;;;;;;2.38;1.13;;;;;;;;;;5026042;28;20150;-81
2023/05/12 12:32:51;;;;;;;0.82;0.80;;;;;;;;;;5033647;28;20497;-82
2023/05/12 12:35:18;;;;;;;1.17;0.80;;;;;;;;;;5032568;28;20490;-78
2023/05/12 12:37:50;;;;;;;0.63;0.60;;;23.50;50.90;;;;;;5034286;28;20032;-80
2023/05/12 12:40:16;;;;;;;0.80;0.80;;;;;;;;;;5027230;28;20029;-81
2023/05/12 12:42:42;;;;;;;1.87;0.60;;;22.90;64.30;;;;;;5033726;28;20037;-79
2023/05/12 12:45:08;;;;;;;2.40;0.77;;;22.20;56.60;;;;;;5035114;28;20416;-79
2023/05/12 12:47:35;;;;;;;2.65;0.98;;;22.10;65.50;;;;;;5031066;28;20021;-76
2023/05/12 12:50:00;;;;;;;1.88;0.80;;;21.90;65.00;;;;;;5020272;28;20117;-85
2023/05/12 12:52:26;;;;;;;1.00;0.95;;;;;;;;;;5032956;28;20120;-81
2023/05/12 12:54:53;;;;;;;0.98;0.60;;;;;;;;;;5038654;28;21211;-81
2023/05/12 12:57:20;;;;;;;3.42;0.70;;;;;;;;;;5027357;28;20033;-80
2023/05/12 12:59:47;;;;;;;0.70;0.60;;;;;;;;;;5026922;28;20147;-80
2023/05/12 13:02:13;;;;;;;0.60;0.50;;;;;;;;;;5032887;28;20025;-79
2023/05/12 13:04:39;;;;;;;1.88;1.00;;;;;;;;;;5043662;28;20033;-78
2023/05/12 13:07:06;;;;;;;1.15;0.70;;;;;;;;;;5038404;28;20033;-81
2023/05/12 13:09:32;;;;;;;3.30;1.20;;;;;;;;;;5008423;28;20087;-77
2023/05/12 13:11:58;;;;;;;1.10;1.00;;;;;;;;;;5024930;28;20037;-76
2023/05/12 13:14:24;;;;;;;0.77;0.77;;;;;;;;;;5033322;28;20108;-77
2023/05/12 13:16:51;;;;;;;1.90;0.83;;;;;;;;;;5033856;28;20026;-81
2023/05/12 13:19:17;;;;;;;0.50;0.50;;;;;;;;;;5016795;28;20034;-81
2023/05/12 13:21:43;;;;;;;1.70;0.80;;;;;;;;;;5027642;28;20025;-81
2023/05/12 13:24:09;;;;;;;2.35;0.80;;;;;;;;;;5036124;28;20032;-81
2023/05/12 13:26:35;;;;;;;3.55;0.70;;;;;;;;;;5030917;28;20036;-82
2023/05/12 13:29:03;;;;;;;1.13;0.65;;;;;;;;;;5038852;28;20033;-81
2023/05/12 13:31:29;;;;;;;1.52;0.82;;;;;;;;;;5024624;28;20643;-82
2023/05/12 13:33:55;;;;;;;1.63;0.80;;;;;;;;;;5030444;28;20021;-82
2023/05/12 13:36:21;;;;;;;4.70;0.77;;;;;;;;;;5038714;28;20499;-80
2023/05/12 13:38:47;;;;;;;3.28;1.25;;;;;;;;;;5035404;28;20100;-83
2023/05/12 13:41:13;;;;;;;0.57;0.50;;;;;;;;;;5013243;28;20478;-82
2023/05/12 13:43:39;;;;;;;6.30;0.98;;;;;;;;;;5031053;28;20037;-85
2023/05/12 13:46:05;;;;;;;1.35;0.60;;;;;;;;;;5040416;28;20017;-81
2023/05/12 13:48:31;;;;;;;1.17;0.60;;;;;;;;;;5037228;28;20035;-80
2023/05/12 13:50:57;;;;;;;0.82;0.70;;;;;;;;;;5025036;28;20033;-82
2023/05/12 13:53:23;;;;;;;4.80;0.95;;;;;;;;;;5047446;28;20024;-81
2023/05/12 13:55:49;;;;;;;0.95;0.70;;;;;;;;;;5050745;28;20105;-80
2023/05/12 13:58:15;;;;;;;4.15;0.68;;;;;;;;;;5041005;28;20244;-82
2023/05/12 14:00:41;;;;;;;1.77;0.63;;;;;;;;;;5025726;28;20021;-82
2023/05/12 14:03:07;;;;;;;0.63;0.60;;;;;;;;;;5047025;28;20573;-80